sensor_id;sensor_type;location;lat;lon;timestamp;P1;durP1;ratioP1;P2;durP2;ratioP2
56860;SDS011;42744;51.094;3.490;2023-02-21T00:02:37;30.47;;;15.40;;
56860;SDS011;42744;51.094;3.490;2023-02-21T00:05:22;28.47;;;16.27;;
56860;SDS011;42744;51.094;3.490;2023-02-21T00:08:07;25.23;;;15.67;;
56860;SDS011;42744;51.094;3.490;2023-02-21T00:10:52;27.33;;;15.73;;
56860;SDS011;42744;51.094;3.490;2023-02-21T00:13:37;29.30;;;16.63;;
56860;SDS011;42744;51.094;3.490;2023-02-21T00:16:22;27.30;;;15.87;;
56860;SDS011;42744;51.094;3.490;2023-02-21T00:19:07;26.80;;;16.70;;
56860;SDS011;42744;51.094;3.490;2023-02-21T00:21:52;27.57;;;15.90;;
56860;SDS011;42744;51.094;3.490;2023-02-21T00:24:36;25.97;;;16.37;;
56860;SDS011;42744;51.094;3.490;2023-02-21T00:27:22;28.90;;;16.07;;
56860;SDS011;42744;51.094;3.490;2023-02-21T00:30:08;30.47;;;17.00;;
56860;SDS011;42744;51.094;3.490;2023-02-21T00:32:56;28.87;;;17.17;;
56860;SDS011;42744;51.094;3.490;2023-02-21T00:35:41;30.90;;;17.97;;
56860;SDS011;42744;51.094;3.490;2023-02-21T00:38:26;32.20;;;17.43;;
56860;SDS011;42744;51.094;3.490;2023-02-21T00:41:11;34.73;;;17.60;;
56860;SDS011;42744;51.094;3.490;2023-02-21T00:43:56;31.83;;;18.47;;
56860;SDS011;42744;51.094;3.490;2023-02-21T00:46:40;35.70;;;17.30;;
56860;SDS011;42744;51.094;3.490;2023-02-21T00:49:25;31.43;;;16.73;;
56860;SDS011;42744;51.094;3.490;2023-02-21T00:52:10;35.00;;;17.10;;
56860;SDS011;42744;51.094;3.490;2023-02-21T00:54:55;33.07;;;17.53;;
56860;SDS011;42744;51.094;3.490;2023-02-21T00:57:39;31.93;;;17.90;;
56860;SDS011;42744;51.094;3.490;2023-02-21T01:00:24;33.47;;;17.23;;
56860;SDS011;42744;51.094;3.490;2023-02-21T01:03:09;34.87;;;17.97;;
56860;SDS011;42744;51.094;3.490;2023-02-21T01:05:55;34.80;;;18.23;;
56860;SDS011;42744;51.094;3.490;2023-02-21T01:08:40;31.97;;;17.80;;
56860;SDS011;42744;51.094;3.490;2023-02-21T01:11:31;31.60;;;16.87;;
56860;SDS011;42744;51.094;3.490;2023-02-21T01:14:15;32.27;;;16.40;;
56860;SDS011;42744;51.094;3.490;2023-02-21T01:17:01;31.60;;;16.20;;
56860;SDS011;42744;51.094;3.490;2023-02-21T01:19:46;35.27;;;17.30;;
56860;SDS011;42744;51.094;3.490;2023-02-21T01:22:32;33.83;;;17.87;;
56860;SDS011;42744;51.094;3.490;2023-02-21T01:25:18;33.33;;;17.27;;
56860;SDS011;42744;51.094;3.490;2023-02-21T01:28:03;31.77;;;17.43;;
56860;SDS011;42744;51.094;3.490;2023-02-21T01:30:48;33.33;;;17.50;;
56860;SDS011;42744;51.094;3.490;2023-02-21T01:33:37;36.90;;;17.50;;
56860;SDS011;42744;51.094;3.490;2023-02-21T01:36:23;30.53;;;17.07;;
56860;SDS011;42744;51.094;3.490;2023-02-21T01:39:08;30.50;;;15.60;;
56860;SDS011;42744;51.094;3.490;2023-02-21T01:41:53;30.63;;;17.00;;
56860;SDS011;42744;51.094;3.490;2023-02-21T01:44:39;33.13;;;17.97;;
56860;SDS011;42744;51.094;3.490;2023-02-21T01:47:26;30.30;;;15.90;;
56860;SDS011;42744;51.094;3.490;2023-02-21T01:50:14;31.90;;;16.90;;
56860;SDS011;42744;51.094;3.490;2023-02-21T01:53:10;34.03;;;17.60;;
56860;SDS011;42744;51.094;3.490;2023-02-21T01:55:58;32.40;;;16.20;;
56860;SDS011;42744;51.094;3.490;2023-02-21T01:58:45;30.90;;;16.67;;
56860;SDS011;42744;51.094;3.490;2023-02-21T02:01:36;30.87;;;15.60;;
56860;SDS011;42744;51.094;3.490;2023-02-21T02:04:31;26.40;;;14.80;;
56860;SDS011;42744;51.094;3.490;2023-02-21T02:07:17;28.60;;;14.80;;
56860;SDS011;42744;51.094;3.490;2023-02-21T02:10:03;29.50;;;15.23;;
56860;SDS011;42744;51.094;3.490;2023-02-21T02:18:21;28.30;;;14.63;;
56860;SDS011;42744;51.094;3.490;2023-02-21T02:37:22;24.00;;;12.63;;
56860;SDS011;42744;51.094;3.490;2023-02-21T02:40:22;20.57;;;11.87;;
56860;SDS011;42744;51.094;3.490;2023-02-21T02:45:21;24.77;;;13.17;;
56860;SDS011;42744;51.094;3.490;2023-02-21T02:48:21;23.23;;;11.50;;
56860;SDS011;42744;51.094;3.490;2023-02-21T02:50:53;19.00;;;11.07;;
56860;SDS011;42744;51.094;3.490;2023-02-21T02:53:24;22.90;;;11.70;;
56860;SDS011;42744;51.094;3.490;2023-02-21T02:55:57;22.77;;;11.40;;
56860;SDS011;42744;51.094;3.490;2023-02-21T02:58:27;22.40;;;12.20;;
56860;SDS011;42744;51.094;3.490;2023-02-21T03:06:56;24.10;;;11.27;;
56860;SDS011;42744;51.094;3.490;2023-02-21T03:09:59;21.90;;;10.77;;
56860;SDS011;42744;51.094;3.490;2023-02-21T03:15:35;24.13;;;11.80;;
56860;SDS011;42744;51.094;3.490;2023-02-21T03:21:14;24.10;;;12.23;;
56860;SDS011;42744;51.094;3.490;2023-02-21T03:23:48;24.37;;;13.00;;
56860;SDS011;42744;51.094;3.490;2023-02-21T03:26:17;24.33;;;12.30;;
56860;SDS011;42744;51.094;3.490;2023-02-21T03:28:44;26.93;;;13.20;;
56860;SDS011;42744;51.094;3.490;2023-02-21T03:31:13;28.83;;;12.17;;
56860;SDS011;42744;51.094;3.490;2023-02-21T03:33:42;27.27;;;13.17;;
56860;SDS011;42744;51.094;3.490;2023-02-21T03:36:09;26.37;;;12.47;;
56860;SDS011;42744;51.094;3.490;2023-02-21T03:38:38;26.67;;;12.03;;
56860;SDS011;42744;51.094;3.490;2023-02-21T03:41:05;25.73;;;12.93;;
56860;SDS011;42744;51.094;3.490;2023-02-21T03:43:33;24.67;;;11.70;;
56860;SDS011;42744;51.094;3.490;2023-02-21T03:46:00;25.00;;;11.77;;
56860;SDS011;42744;51.094;3.490;2023-02-21T03:48:27;26.13;;;12.00;;
56860;SDS011;42744;51.094;3.490;2023-02-21T03:50:53;31.27;;;12.67;;
56860;SDS011;42744;51.094;3.490;2023-02-21T03:53:20;27.77;;;12.03;;
56860;SDS011;42744;51.094;3.490;2023-02-21T03:55:46;23.80;;;11.33;;
56860;SDS011;42744;51.094;3.490;2023-02-21T03:58:13;25.90;;;12.13;;
56860;SDS011;42744;51.094;3.490;2023-02-21T04:00:39;29.43;;;12.33;;
56860;SDS011;42744;51.094;3.490;2023-02-21T04:03:05;24.43;;;11.50;;
56860;SDS011;42744;51.094;3.490;2023-02-21T04:05:32;26.63;;;12.30;;
56860;SDS011;42744;51.094;3.490;2023-02-21T04:07:58;25.83;;;11.90;;
56860;SDS011;42744;51.094;3.490;2023-02-21T04:10:25;28.77;;;12.43;;
56860;SDS011;42744;51.094;3.490;2023-02-21T04:12:52;29.97;;;12.60;;
56860;SDS011;42744;51.094;3.490;2023-02-21T04:15:18;30.17;;;13.37;;
56860;SDS011;42744;51.094;3.490;2023-02-21T04:17:45;29.83;;;12.77;;
56860;SDS011;42744;51.094;3.490;2023-02-21T04:20:12;34.10;;;13.30;;
56860;SDS011;42744;51.094;3.490;2023-02-21T04:22:40;28.37;;;13.10;;
56860;SDS011;42744;51.094;3.490;2023-02-21T04:25:06;32.87;;;13.07;;
56860;SDS011;42744;51.094;3.490;2023-02-21T04:27:34;28.80;;;12.93;;
56860;SDS011;42744;51.094;3.490;2023-02-21T04:30:00;30.70;;;14.13;;
56860;SDS011;42744;51.094;3.490;2023-02-21T04:32:27;30.63;;;13.67;;
56860;SDS011;42744;51.094;3.490;2023-02-21T04:34:53;32.23;;;13.30;;
56860;SDS011;42744;51.094;3.490;2023-02-21T04:37:20;30.10;;;13.83;;
56860;SDS011;42744;51.094;3.490;2023-02-21T04:39:46;31.60;;;14.57;;
56860;SDS011;42744;51.094;3.490;2023-02-21T04:42:15;32.87;;;14.30;;
56860;SDS011;42744;51.094;3.490;2023-02-21T04:44:45;41.17;;;16.53;;
56860;SDS011;42744;51.094;3.490;2023-02-21T04:47:11;36.53;;;15.30;;
56860;SDS011;42744;51.094;3.490;2023-02-21T04:49:37;36.67;;;15.23;;
56860;SDS011;42744;51.094;3.490;2023-02-21T04:52:03;36.73;;;15.60;;
56860;SDS011;42744;51.094;3.490;2023-02-21T04:54:29;35.13;;;15.60;;
56860;SDS011;42744;51.094;3.490;2023-02-21T04:56:55;36.20;;;14.20;;
56860;SDS011;42744;51.094;3.490;2023-02-21T04:59:21;33.37;;;13.77;;
56860;SDS011;42744;51.094;3.490;2023-02-21T05:01:47;37.03;;;14.40;;
56860;SDS011;42744;51.094;3.490;2023-02-21T05:04:13;41.13;;;15.33;;
56860;SDS011;42744;51.094;3.490;2023-02-21T05:06:39;44.63;;;15.77;;
56860;SDS011;42744;51.094;3.490;2023-02-21T05:09:06;41.33;;;16.13;;
56860;SDS011;42744;51.094;3.490;2023-02-21T05:11:32;37.43;;;15.47;;
56860;SDS011;42744;51.094;3.490;2023-02-21T05:13:59;34.83;;;13.90;;
56860;SDS011;42744;51.094;3.490;2023-02-21T05:16:25;32.57;;;13.63;;
56860;SDS011;42744;51.094;3.490;2023-02-21T05:18:51;25.60;;;11.33;;
56860;SDS011;42744;51.094;3.490;2023-02-21T05:21:17;22.73;;;10.20;;
56860;SDS011;42744;51.094;3.490;2023-02-21T05:23:44;26.53;;;10.90;;
56860;SDS011;42744;51.094;3.490;2023-02-21T05:26:21;24.10;;;9.87;;
56860;SDS011;42744;51.094;3.490;2023-02-21T05:28:49;19.73;;;9.03;;
56860;SDS011;42744;51.094;3.490;2023-02-21T05:31:16;24.27;;;10.47;;
56860;SDS011;42744;51.094;3.490;2023-02-21T05:33:41;22.93;;;10.20;;
56860;SDS011;42744;51.094;3.490;2023-02-21T05:36:08;21.13;;;9.13;;
56860;SDS011;42744;51.094;3.490;2023-02-21T05:38:42;20.53;;;9.47;;
56860;SDS011;42744;51.094;3.490;2023-02-21T05:41:10;23.97;;;10.07;;
56860;SDS011;42744;51.094;3.490;2023-02-21T05:43:36;20.20;;;9.37;;
56860;SDS011;42744;51.094;3.490;2023-02-21T05:46:04;17.87;;;8.83;;
56860;SDS011;42744;51.094;3.490;2023-02-21T05:48:30;18.23;;;9.13;;
56860;SDS011;42744;51.094;3.490;2023-02-21T05:50:56;20.83;;;9.43;;
56860;SDS011;42744;51.094;3.490;2023-02-21T05:53:25;20.63;;;10.23;;
56860;SDS011;42744;51.094;3.490;2023-02-21T05:55:51;20.23;;;9.47;;
56860;SDS011;42744;51.094;3.490;2023-02-21T05:58:17;25.70;;;10.33;;
56860;SDS011;42744;51.094;3.490;2023-02-21T06:00:43;21.00;;;10.00;;
56860;SDS011;42744;51.094;3.490;2023-02-21T06:03:10;22.13;;;8.87;;
56860;SDS011;42744;51.094;3.490;2023-02-21T06:05:37;23.07;;;9.63;;
56860;SDS011;42744;51.094;3.490;2023-02-21T06:08:03;25.50;;;10.27;;
56860;SDS011;42744;51.094;3.490;2023-02-21T06:10:29;26.07;;;10.27;;
56860;SDS011;42744;51.094;3.490;2023-02-21T06:12:55;26.27;;;11.20;;
56860;SDS011;42744;51.094;3.490;2023-02-21T06:15:21;33.37;;;12.30;;
56860;SDS011;42744;51.094;3.490;2023-02-21T06:17:48;27.73;;;11.03;;
56860;SDS011;42744;51.094;3.490;2023-02-21T06:20:14;25.07;;;10.63;;
56860;SDS011;42744;51.094;3.490;2023-02-21T06:22:41;24.47;;;10.50;;
56860;SDS011;42744;51.094;3.490;2023-02-21T06:25:08;27.90;;;11.50;;
56860;SDS011;42744;51.094;3.490;2023-02-21T06:27:35;23.83;;;11.53;;
56860;SDS011;42744;51.094;3.490;2023-02-21T06:30:01;24.60;;;10.27;;
56860;SDS011;42744;51.094;3.490;2023-02-21T06:32:28;22.27;;;10.00;;
56860;SDS011;42744;51.094;3.490;2023-02-21T06:34:54;21.33;;;9.57;;
56860;SDS011;42744;51.094;3.490;2023-02-21T06:37:21;23.27;;;10.33;;
56860;SDS011;42744;51.094;3.490;2023-02-21T06:39:47;20.60;;;9.80;;
56860;SDS011;42744;51.094;3.490;2023-02-21T06:42:13;21.80;;;10.07;;
56860;SDS011;42744;51.094;3.490;2023-02-21T06:44:47;21.60;;;10.57;;
56860;SDS011;42744;51.094;3.490;2023-02-21T06:47:14;19.27;;;10.07;;
56860;SDS011;42744;51.094;3.490;2023-02-21T06:49:41;20.40;;;9.47;;
56860;SDS011;42744;51.094;3.490;2023-02-21T06:52:08;19.07;;;8.87;;
56860;SDS011;42744;51.094;3.490;2023-02-21T06:54:34;17.97;;;9.37;;
56860;SDS011;42744;51.094;3.490;2023-02-21T06:57:01;16.67;;;8.93;;
56860;SDS011;42744;51.094;3.490;2023-02-21T06:59:27;19.33;;;8.67;;
56860;SDS011;42744;51.094;3.490;2023-02-21T07:01:54;18.93;;;7.90;;
56860;SDS011;42744;51.094;3.490;2023-02-21T07:04:21;19.00;;;8.50;;
56860;SDS011;42744;51.094;3.490;2023-02-21T07:06:47;17.93;;;7.90;;
56860;SDS011;42744;51.094;3.490;2023-02-21T07:09:13;19.50;;;8.20;;
56860;SDS011;42744;51.094;3.490;2023-02-21T07:11:39;19.30;;;8.20;;
56860;SDS011;42744;51.094;3.490;2023-02-21T07:14:06;16.90;;;8.33;;
56860;SDS011;42744;51.094;3.490;2023-02-21T07:16:32;20.07;;;7.97;;
56860;SDS011;42744;51.094;3.490;2023-02-21T07:18:58;20.47;;;9.70;;
56860;SDS011;42744;51.094;3.490;2023-02-21T07:21:24;18.57;;;9.03;;
56860;SDS011;42744;51.094;3.490;2023-02-21T07:23:52;20.93;;;8.80;;
56860;SDS011;42744;51.094;3.490;2023-02-21T07:26:18;19.20;;;8.73;;
56860;SDS011;42744;51.094;3.490;2023-02-21T07:28:46;20.60;;;10.13;;
56860;SDS011;42744;51.094;3.490;2023-02-21T07:31:13;20.07;;;9.83;;
56860;SDS011;42744;51.094;3.490;2023-02-21T07:33:39;22.27;;;9.30;;
56860;SDS011;42744;51.094;3.490;2023-02-21T07:36:05;17.87;;;7.93;;
56860;SDS011;42744;51.094;3.490;2023-02-21T07:38:31;25.83;;;10.90;;
56860;SDS011;42744;51.094;3.490;2023-02-21T07:40:59;30.50;;;12.47;;
56860;SDS011;42744;51.094;3.490;2023-02-21T07:43:26;29.73;;;13.20;;
56860;SDS011;42744;51.094;3.490;2023-02-21T07:45:54;31.50;;;13.40;;
56860;SDS011;42744;51.094;3.490;2023-02-21T07:48:20;27.13;;;12.67;;
56860;SDS011;42744;51.094;3.490;2023-02-21T07:50:46;33.07;;;14.50;;
56860;SDS011;42744;51.094;3.490;2023-02-21T07:53:14;30.90;;;13.67;;
56860;SDS011;42744;51.094;3.490;2023-02-21T07:55:40;30.37;;;13.87;;
56860;SDS011;42744;51.094;3.490;2023-02-21T07:58:07;30.90;;;14.40;;
56860;SDS011;42744;51.094;3.490;2023-02-21T08:00:33;29.10;;;13.40;;
56860;SDS011;42744;51.094;3.490;2023-02-21T08:02:59;27.43;;;13.47;;
56860;SDS011;42744;51.094;3.490;2023-02-21T08:05:26;30.07;;;14.00;;
56860;SDS011;42744;51.094;3.490;2023-02-21T08:07:52;27.13;;;12.57;;
56860;SDS011;42744;51.094;3.490;2023-02-21T08:10:20;25.73;;;10.83;;
56860;SDS011;42744;51.094;3.490;2023-02-21T08:12:50;26.03;;;11.17;;
56860;SDS011;42744;51.094;3.490;2023-02-21T08:15:17;23.57;;;10.17;;
56860;SDS011;42744;51.094;3.490;2023-02-21T08:17:46;24.93;;;10.40;;
56860;SDS011;42744;51.094;3.490;2023-02-21T08:20:14;26.70;;;12.60;;
56860;SDS011;42744;51.094;3.490;2023-02-21T08:22:40;29.93;;;12.03;;
56860;SDS011;42744;51.094;3.490;2023-02-21T08:25:06;32.03;;;14.00;;
56860;SDS011;42744;51.094;3.490;2023-02-21T08:27:38;31.20;;;12.20;;
56860;SDS011;42744;51.094;3.490;2023-02-21T08:30:05;36.53;;;13.80;;
56860;SDS011;42744;51.094;3.490;2023-02-21T08:32:33;37.33;;;14.00;;
56860;SDS011;42744;51.094;3.490;2023-02-21T08:35:00;36.37;;;15.40;;
56860;SDS011;42744;51.094;3.490;2023-02-21T08:37:28;35.90;;;14.47;;
56860;SDS011;42744;51.094;3.490;2023-02-21T08:39:58;38.37;;;15.27;;
56860;SDS011;42744;51.094;3.490;2023-02-21T08:42:24;34.53;;;15.00;;
56860;SDS011;42744;51.094;3.490;2023-02-21T08:44:50;35.23;;;13.77;;
56860;SDS011;42744;51.094;3.490;2023-02-21T08:47:17;29.27;;;13.53;;
56860;SDS011;42744;51.094;3.490;2023-02-21T08:49:46;34.70;;;14.33;;
56860;SDS011;42744;51.094;3.490;2023-02-21T08:52:13;37.70;;;14.03;;
56860;SDS011;42744;51.094;3.490;2023-02-21T08:54:41;39.13;;;15.50;;
56860;SDS011;42744;51.094;3.490;2023-02-21T08:57:08;42.40;;;15.63;;
56860;SDS011;42744;51.094;3.490;2023-02-21T08:59:33;37.30;;;15.23;;
56860;SDS011;42744;51.094;3.490;2023-02-21T09:02:02;36.03;;;14.33;;
56860;SDS011;42744;51.094;3.490;2023-02-21T09:04:28;38.97;;;16.27;;
56860;SDS011;42744;51.094;3.490;2023-02-21T09:06:54;36.13;;;14.90;;
56860;SDS011;42744;51.094;3.490;2023-02-21T09:09:21;32.93;;;14.50;;
56860;SDS011;42744;51.094;3.490;2023-02-21T09:11:47;37.37;;;15.33;;
56860;SDS011;42744;51.094;3.490;2023-02-21T09:14:14;36.53;;;14.30;;
56860;SDS011;42744;51.094;3.490;2023-02-21T09:16:41;34.33;;;14.07;;
56860;SDS011;42744;51.094;3.490;2023-02-21T09:19:07;35.27;;;14.40;;
56860;SDS011;42744;51.094;3.490;2023-02-21T09:21:34;32.53;;;14.20;;
56860;SDS011;42744;51.094;3.490;2023-02-21T09:24:01;30.60;;;12.97;;
56860;SDS011;42744;51.094;3.490;2023-02-21T09:26:27;27.17;;;11.10;;
56860;SDS011;42744;51.094;3.490;2023-02-21T09:28:56;23.83;;;10.83;;
56860;SDS011;42744;51.094;3.490;2023-02-21T09:31:23;21.87;;;10.17;;
56860;SDS011;42744;51.094;3.490;2023-02-21T09:33:49;28.07;;;12.13;;
56860;SDS011;42744;51.094;3.490;2023-02-21T09:36:15;29.00;;;12.77;;
56860;SDS011;42744;51.094;3.490;2023-02-21T09:38:49;23.50;;;11.27;;
56860;SDS011;42744;51.094;3.490;2023-02-21T09:41:15;25.57;;;11.57;;
56860;SDS011;42744;51.094;3.490;2023-02-21T09:43:47;24.17;;;11.00;;
56860;SDS011;42744;51.094;3.490;2023-02-21T09:49:00;25.77;;;11.23;;
56860;SDS011;42744;51.094;3.490;2023-02-21T09:51:29;22.27;;;11.47;;
56860;SDS011;42744;51.094;3.490;2023-02-21T09:53:57;25.47;;;11.30;;
56860;SDS011;42744;51.094;3.490;2023-02-21T09:56:28;25.67;;;11.20;;
56860;SDS011;42744;51.094;3.490;2023-02-21T09:58:59;24.47;;;10.80;;
56860;SDS011;42744;51.094;3.490;2023-02-21T10:04:36;29.03;;;12.13;;
56860;SDS011;42744;51.094;3.490;2023-02-21T10:07:30;24.00;;;12.37;;
56860;SDS011;42744;51.094;3.490;2023-02-21T10:12:56;27.97;;;12.03;;
56860;SDS011;42744;51.094;3.490;2023-02-21T10:20:55;29.67;;;13.20;;
56860;SDS011;42744;51.094;3.490;2023-02-21T10:23:28;32.90;;;16.33;;
56860;SDS011;42744;51.094;3.490;2023-02-21T10:26:08;31.73;;;14.20;;
56860;SDS011;42744;51.094;3.490;2023-02-21T10:28:36;33.63;;;14.13;;
56860;SDS011;42744;51.094;3.490;2023-02-21T10:31:08;28.67;;;13.83;;
56860;SDS011;42744;51.094;3.490;2023-02-21T10:33:38;34.23;;;14.87;;
56860;SDS011;42744;51.094;3.490;2023-02-21T10:36:09;32.43;;;15.33;;
56860;SDS011;42744;51.094;3.490;2023-02-21T10:38:37;27.20;;;13.37;;
56860;SDS011;42744;51.094;3.490;2023-02-21T10:41:07;29.03;;;14.53;;
56860;SDS011;42744;51.094;3.490;2023-02-21T10:43:37;26.20;;;15.03;;
56860;SDS011;42744;51.094;3.490;2023-02-21T10:46:24;26.93;;;14.70;;
56860;SDS011;42744;51.094;3.490;2023-02-21T10:48:58;23.00;;;12.37;;
56860;SDS011;42744;51.094;3.490;2023-02-21T10:51:43;17.20;;;9.73;;
56860;SDS011;42744;51.094;3.490;2023-02-21T10:54:17;17.73;;;9.40;;
56860;SDS011;42744;51.094;3.490;2023-02-21T10:56:46;15.90;;;8.80;;
56860;SDS011;42744;51.094;3.490;2023-02-21T10:59:21;12.47;;;7.93;;
56860;SDS011;42744;51.094;3.490;2023-02-21T11:01:53;11.80;;;7.50;;
56860;SDS011;42744;51.094;3.490;2023-02-21T11:06:53;11.77;;;7.30;;
56860;SDS011;42744;51.094;3.490;2023-02-21T11:14:36;12.50;;;7.67;;
56860;SDS011;42744;51.094;3.490;2023-02-21T11:17:03;11.80;;;7.00;;
56860;SDS011;42744;51.094;3.490;2023-02-21T11:19:29;13.30;;;7.67;;
56860;SDS011;42744;51.094;3.490;2023-02-21T11:25:20;11.83;;;6.10;;
56860;SDS011;42744;51.094;3.490;2023-02-21T11:30:37;12.57;;;7.73;;
56860;SDS011;42744;51.094;3.490;2023-02-21T11:33:11;12.60;;;6.80;;
56860;SDS011;42744;51.094;3.490;2023-02-21T11:35:47;13.63;;;6.93;;
56860;SDS011;42744;51.094;3.490;2023-02-21T11:38:32;14.23;;;8.03;;
56860;SDS011;42744;51.094;3.490;2023-02-21T11:41:02;11.60;;;6.63;;
56860;SDS011;42744;51.094;3.490;2023-02-21T11:43:59;12.27;;;7.23;;
56860;SDS011;42744;51.094;3.490;2023-02-21T11:51:38;13.33;;;7.70;;
56860;SDS011;42744;51.094;3.490;2023-02-21T11:54:14;14.47;;;8.30;;
56860;SDS011;42744;51.094;3.490;2023-02-21T11:56:43;14.13;;;8.17;;
56860;SDS011;42744;51.094;3.490;2023-02-21T12:02:17;16.63;;;8.87;;
56860;SDS011;42744;51.094;3.490;2023-02-21T12:22:00;19.87;;;11.43;;
56860;SDS011;42744;51.094;3.490;2023-02-21T12:27:44;17.57;;;10.83;;
56860;SDS011;42744;51.094;3.490;2023-02-21T12:36:31;19.23;;;12.13;;
56860;SDS011;42744;51.094;3.490;2023-02-21T12:45:01;20.83;;;13.57;;
56860;SDS011;42744;51.094;3.490;2023-02-21T12:47:31;21.97;;;13.43;;
56860;SDS011;42744;51.094;3.490;2023-02-21T12:52:59;21.07;;;13.17;;
56860;SDS011;42744;51.094;3.490;2023-02-21T12:58:28;19.97;;;12.60;;
56860;SDS011;42744;51.094;3.490;2023-02-21T13:01:14;21.10;;;13.90;;
56860;SDS011;42744;51.094;3.490;2023-02-21T13:04:02;20.73;;;13.13;;
56860;SDS011;42744;51.094;3.490;2023-02-21T13:06:49;20.97;;;13.07;;
56860;SDS011;42744;51.094;3.490;2023-02-21T13:09:48;18.73;;;12.33;;
56860;SDS011;42744;51.094;3.490;2023-02-21T13:12:27;21.07;;;13.77;;
56860;SDS011;42744;51.094;3.490;2023-02-21T13:17:36;19.60;;;13.37;;
56860;SDS011;42744;51.094;3.490;2023-02-21T13:20:05;16.97;;;12.20;;
56860;SDS011;42744;51.094;3.490;2023-02-21T13:28:19;15.90;;;11.17;;
56860;SDS011;42744;51.094;3.490;2023-02-21T13:30:52;14.80;;;11.30;;
56860;SDS011;42744;51.094;3.490;2023-02-21T13:33:25;19.80;;;12.77;;
56860;SDS011;42744;51.094;3.490;2023-02-21T13:39:15;16.70;;;11.63;;
56860;SDS011;42744;51.094;3.490;2023-02-21T13:41:48;18.70;;;11.77;;
56860;SDS011;42744;51.094;3.490;2023-02-21T13:44:25;18.37;;;11.87;;
56860;SDS011;42744;51.094;3.490;2023-02-21T13:47:03;17.80;;;12.13;;
56860;SDS011;42744;51.094;3.490;2023-02-21T14:02:59;20.47;;;13.47;;
56860;SDS011;42744;51.094;3.490;2023-02-21T14:10:57;24.07;;;14.23;;
56860;SDS011;42744;51.094;3.490;2023-02-21T14:13:50;20.20;;;13.70;;
56860;SDS011;42744;51.094;3.490;2023-02-21T14:19:11;20.47;;;13.90;;
56860;SDS011;42744;51.094;3.490;2023-02-21T14:21:46;20.17;;;14.40;;
56860;SDS011;42744;51.094;3.490;2023-02-21T14:24:16;16.97;;;11.53;;
56860;SDS011;42744;51.094;3.490;2023-02-21T14:26:53;19.13;;;13.70;;
56860;SDS011;42744;51.094;3.490;2023-02-21T14:32:24;19.67;;;13.70;;
56860;SDS011;42744;51.094;3.490;2023-02-21T14:37:44;21.17;;;14.13;;
56860;SDS011;42744;51.094;3.490;2023-02-21T14:45:43;19.57;;;14.27;;
56860;SDS011;42744;51.094;3.490;2023-02-21T14:59:48;23.40;;;14.60;;
56860;SDS011;42744;51.094;3.490;2023-02-21T15:05:29;20.37;;;14.90;;
56860;SDS011;42744;51.094;3.490;2023-02-21T15:08:17;20.63;;;13.70;;
56860;SDS011;42744;51.094;3.490;2023-02-21T15:10:50;18.03;;;12.73;;
56860;SDS011;42744;51.094;3.490;2023-02-21T15:13:28;18.37;;;12.73;;
56860;SDS011;42744;51.094;3.490;2023-02-21T15:18:28;18.97;;;13.33;;
56860;SDS011;42744;51.094;3.490;2023-02-21T15:23:45;20.80;;;13.87;;
56860;SDS011;42744;51.094;3.490;2023-02-21T15:26:23;19.73;;;13.73;;
56860;SDS011;42744;51.094;3.490;2023-02-21T15:29:08;16.77;;;12.57;;
56860;SDS011;42744;51.094;3.490;2023-02-21T15:31:44;19.50;;;13.93;;
56860;SDS011;42744;51.094;3.490;2023-02-21T15:34:22;19.57;;;13.43;;
56860;SDS011;42744;51.094;3.490;2023-02-21T15:37:02;19.07;;;13.57;;
56860;SDS011;42744;51.094;3.490;2023-02-21T15:39:38;20.57;;;13.07;;
56860;SDS011;42744;51.094;3.490;2023-02-21T15:42:07;16.90;;;12.53;;
56860;SDS011;42744;51.094;3.490;2023-02-21T15:44:36;18.17;;;12.90;;
56860;SDS011;42744;51.094;3.490;2023-02-21T15:47:17;16.47;;;11.73;;
56860;SDS011;42744;51.094;3.490;2023-02-21T15:50:09;16.20;;;11.13;;
56860;SDS011;42744;51.094;3.490;2023-02-21T15:52:42;16.50;;;12.33;;
56860;SDS011;42744;51.094;3.490;2023-02-21T15:55:20;18.37;;;12.87;;
56860;SDS011;42744;51.094;3.490;2023-02-21T16:00:36;19.23;;;13.50;;
56860;SDS011;42744;51.094;3.490;2023-02-21T16:08:57;18.80;;;13.60;;
56860;SDS011;42744;51.094;3.490;2023-02-21T16:14:43;21.13;;;14.93;;
56860;SDS011;42744;51.094;3.490;2023-02-21T16:17:23;19.50;;;14.33;;
56860;SDS011;42744;51.094;3.490;2023-02-21T16:20:01;21.87;;;14.93;;
56860;SDS011;42744;51.094;3.490;2023-02-21T16:22:39;21.23;;;16.00;;
56860;SDS011;42744;51.094;3.490;2023-02-21T16:27:35;20.80;;;15.30;;
56860;SDS011;42744;51.094;3.490;2023-02-21T16:30:01;23.00;;;15.17;;
56860;SDS011;42744;51.094;3.490;2023-02-21T16:32:29;22.57;;;14.93;;
56860;SDS011;42744;51.094;3.490;2023-02-21T16:34:56;21.60;;;15.90;;
56860;SDS011;42744;51.094;3.490;2023-02-21T16:37:23;20.20;;;14.97;;
56860;SDS011;42744;51.094;3.490;2023-02-21T16:39:49;21.77;;;15.33;;
56860;SDS011;42744;51.094;3.490;2023-02-21T16:42:16;22.50;;;15.73;;
56860;SDS011;42744;51.094;3.490;2023-02-21T16:44:44;20.97;;;15.80;;
56860;SDS011;42744;51.094;3.490;2023-02-21T16:47:15;23.37;;;16.83;;
56860;SDS011;42744;51.094;3.490;2023-02-21T16:49:43;24.03;;;16.50;;
56860;SDS011;42744;51.094;3.490;2023-02-21T16:52:15;22.13;;;15.20;;
56860;SDS011;42744;51.094;3.490;2023-02-21T16:54:42;22.80;;;16.17;;
56860;SDS011;42744;51.094;3.490;2023-02-21T16:57:08;22.67;;;16.30;;
56860;SDS011;42744;51.094;3.490;2023-02-21T16:59:35;23.23;;;15.80;;
56860;SDS011;42744;51.094;3.490;2023-02-21T17:02:02;25.40;;;16.20;;
56860;SDS011;42744;51.094;3.490;2023-02-21T17:04:36;22.10;;;15.97;;
56860;SDS011;42744;51.094;3.490;2023-02-21T17:07:03;24.63;;;16.13;;
56860;SDS011;42744;51.094;3.490;2023-02-21T17:09:33;27.30;;;16.87;;
56860;SDS011;42744;51.094;3.490;2023-02-21T17:12:04;23.33;;;16.00;;
56860;SDS011;42744;51.094;3.490;2023-02-21T17:14:31;24.83;;;15.83;;
56860;SDS011;42744;51.094;3.490;2023-02-21T17:16:58;23.27;;;15.57;;
56860;SDS011;42744;51.094;3.490;2023-02-21T17:19:24;33.23;;;17.23;;
56860;SDS011;42744;51.094;3.490;2023-02-21T17:21:51;25.27;;;16.27;;
56860;SDS011;42744;51.094;3.490;2023-02-21T17:24:17;24.90;;;15.37;;
56860;SDS011;42744;51.094;3.490;2023-02-21T17:26:43;24.53;;;15.83;;
56860;SDS011;42744;51.094;3.490;2023-02-21T17:29:10;26.47;;;16.03;;
56860;SDS011;42744;51.094;3.490;2023-02-21T17:31:36;28.80;;;17.17;;
56860;SDS011;42744;51.094;3.490;2023-02-21T17:34:02;26.93;;;17.60;;
56860;SDS011;42744;51.094;3.490;2023-02-21T17:36:28;22.87;;;15.20;;
56860;SDS011;42744;51.094;3.490;2023-02-21T17:38:55;22.23;;;15.07;;
56860;SDS011;42744;51.094;3.490;2023-02-21T17:41:22;22.53;;;14.07;;
56860;SDS011;42744;51.094;3.490;2023-02-21T17:43:48;23.17;;;14.23;;
56860;SDS011;42744;51.094;3.490;2023-02-21T17:46:15;21.13;;;14.53;;
56860;SDS011;42744;51.094;3.490;2023-02-21T17:48:43;25.47;;;16.07;;
56860;SDS011;42744;51.094;3.490;2023-02-21T17:51:16;23.17;;;15.73;;
56860;SDS011;42744;51.094;3.490;2023-02-21T17:53:46;23.03;;;15.77;;
56860;SDS011;42744;51.094;3.490;2023-02-21T17:56:15;24.07;;;15.80;;
56860;SDS011;42744;51.094;3.490;2023-02-21T17:58:45;26.60;;;14.93;;
56860;SDS011;42744;51.094;3.490;2023-02-21T18:01:15;23.17;;;15.23;;
56860;SDS011;42744;51.094;3.490;2023-02-21T18:03:43;24.87;;;15.53;;